sensor_id;sensor_type;location;lat;lon;timestamp;P1;durP1;ratioP1;P2;durP2;ratioP2
6292;SDS011;3179;54.350;10.102;2024-01-06T00:00:34;2.23;;;2.03;;
6292;SDS011;3179;54.350;10.102;2024-01-06T00:03:02;1.90;;;1.80;;
6292;SDS011;3179;54.350;10.102;2024-01-06T00:05:29;2.20;;;1.80;;
6292;SDS011;3179;54.350;10.102;2024-01-06T00:07:56;3.17;;;1.80;;
6292;SDS011;3179;54.350;10.102;2024-01-06T00:10:23;5.37;;;2.20;;
6292;SDS011;3179;54.350;10.102;2024-01-06T00:12:51;3.77;;;1.70;;
6292;SDS011;3179;54.350;10.102;2024-01-06T00:15:18;2.90;;;1.73;;
6292;SDS011;3179;54.350;10.102;2024-01-06T00:17:45;3.60;;;1.77;;
6292;SDS011;3179;54.350;10.102;2024-01-06T00:20:13;2.87;;;2.00;;
6292;SDS011;3179;54.350;10.102;2024-01-06T00:22:40;2.57;;;2.17;;
6292;SDS011;3179;54.350;10.102;2024-01-06T00:25:07;2.27;;;2.00;;
6292;SDS011;3179;54.350;10.102;2024-01-06T00:27:34;3.57;;;2.30;;
6292;SDS011;3179;54.350;10.102;2024-01-06T00:30:01;2.90;;;2.13;;
6292;SDS011;3179;54.350;10.102;2024-01-06T00:32:28;5.10;;;1.97;;
6292;SDS011;3179;54.350;10.102;2024-01-06T00:34:55;2.50;;;1.83;;
6292;SDS011;3179;54.350;10.102;2024-01-06T00:37:23;1.93;;;1.83;;
6292;SDS011;3179;54.350;10.102;2024-01-06T00:39:50;3.77;;;2.20;;
6292;SDS011;3179;54.350;10.102;2024-01-06T00:42:17;3.57;;;2.20;;
6292;SDS011;3179;54.350;10.102;2024-01-06T00:44:44;4.77;;;2.10;;
6292;SDS011;3179;54.350;10.102;2024-01-06T00:47:11;5.00;;;1.80;;
6292;SDS011;3179;54.350;10.102;2024-01-06T00:49:38;3.70;;;1.77;;
6292;SDS011;3179;54.350;10.102;2024-01-06T00:52:06;3.03;;;2.03;;
6292;SDS011;3179;54.350;10.102;2024-01-06T00:54:34;3.40;;;1.93;;
6292;SDS011;3179;54.350;10.102;2024-01-06T00:57:01;3.10;;;1.83;;
6292;SDS011;3179;54.350;10.102;2024-01-06T00:59:28;2.70;;;2.10;;
6292;SDS011;3179;54.350;10.102;2024-01-06T01:01:55;2.23;;;2.07;;
6292;SDS011;3179;54.350;10.102;2024-01-06T01:04:22;5.00;;;2.37;;
6292;SDS011;3179;54.350;10.102;2024-01-06T01:06:49;4.37;;;2.27;;
6292;SDS011;3179;54.350;10.102;2024-01-06T01:09:15;1.93;;;1.77;;
6292;SDS011;3179;54.350;10.102;2024-01-06T01:11:44;1.90;;;1.73;;
6292;SDS011;3179;54.350;10.102;2024-01-06T01:14:11;2.60;;;2.37;;
6292;SDS011;3179;54.350;10.102;2024-01-06T01:16:38;2.93;;;1.90;;
6292;SDS011;3179;54.350;10.102;2024-01-06T01:19:05;1.60;;;1.50;;
6292;SDS011;3179;54.350;10.102;2024-01-06T01:21:31;4.53;;;2.03;;
6292;SDS011;3179;54.350;10.102;2024-01-06T01:23:58;2.47;;;2.00;;
6292;SDS011;3179;54.350;10.102;2024-01-06T01:26:25;5.83;;;2.30;;
6292;SDS011;3179;54.350;10.102;2024-01-06T01:28:53;2.83;;;1.70;;
6292;SDS011;3179;54.350;10.102;2024-01-06T01:31:20;2.50;;;2.30;;
6292;SDS011;3179;54.350;10.102;2024-01-06T01:33:47;2.30;;;2.10;;
6292;SDS011;3179;54.350;10.102;2024-01-06T01:36:14;4.30;;;1.97;;
6292;SDS011;3179;54.350;10.102;2024-01-06T01:38:43;3.97;;;2.27;;
6292;SDS011;3179;54.350;10.102;2024-01-06T01:41:10;2.13;;;1.90;;
6292;SDS011;3179;54.350;10.102;2024-01-06T01:43:37;2.97;;;1.83;;
6292;SDS011;3179;54.350;10.102;2024-01-06T01:46:05;2.93;;;2.20;;
6292;SDS011;3179;54.350;10.102;2024-01-06T01:48:32;1.90;;;1.80;;
6292;SDS011;3179;54.350;10.102;2024-01-06T01:50:59;1.80;;;1.60;;
6292;SDS011;3179;54.350;10.102;2024-01-06T01:53:27;2.10;;;1.90;;
6292;SDS011;3179;54.350;10.102;2024-01-06T01:55:54;2.23;;;2.03;;
6292;SDS011;3179;54.350;10.102;2024-01-06T01:58:21;5.50;;;1.70;;
6292;SDS011;3179;54.350;10.102;2024-01-06T02:00:48;2.07;;;1.87;;
6292;SDS011;3179;54.350;10.102;2024-01-06T02:03:17;4.27;;;2.40;;
6292;SDS011;3179;54.350;10.102;2024-01-06T02:05:44;2.80;;;1.90;;
6292;SDS011;3179;54.350;10.102;2024-01-06T02:08:11;3.57;;;2.07;;
6292;SDS011;3179;54.350;10.102;2024-01-06T02:10:38;4.00;;;2.00;;
6292;SDS011;3179;54.350;10.102;2024-01-06T02:13:08;2.70;;;1.90;;
6292;SDS011;3179;54.350;10.102;2024-01-06T02:15:36;4.07;;;1.80;;
6292;SDS011;3179;54.350;10.102;2024-01-06T02:18:03;1.50;;;1.40;;
6292;SDS011;3179;54.350;10.102;2024-01-06T02:20:32;2.23;;;2.00;;
6292;SDS011;3179;54.350;10.102;2024-01-06T02:23:00;3.03;;;2.13;;
6292;SDS011;3179;54.350;10.102;2024-01-06T02:25:27;3.47;;;2.20;;
6292;SDS011;3179;54.350;10.102;2024-01-06T02:27:54;3.50;;;1.97;;
6292;SDS011;3179;54.350;10.102;2024-01-06T02:30:21;2.03;;;1.70;;
6292;SDS011;3179;54.350;10.102;2024-01-06T02:32:48;3.13;;;1.77;;
6292;SDS011;3179;54.350;10.102;2024-01-06T02:35:15;3.83;;;2.23;;
6292;SDS011;3179;54.350;10.102;2024-01-06T02:37:42;1.90;;;1.30;;
6292;SDS011;3179;54.350;10.102;2024-01-06T02:40:11;1.77;;;1.67;;
6292;SDS011;3179;54.350;10.102;2024-01-06T02:42:39;2.03;;;1.70;;
6292;SDS011;3179;54.350;10.102;2024-01-06T02:45:07;2.40;;;2.10;;
6292;SDS011;3179;54.350;10.102;2024-01-06T02:47:34;2.80;;;2.17;;
6292;SDS011;3179;54.350;10.102;2024-01-06T02:50:01;4.00;;;1.97;;
6292;SDS011;3179;54.350;10.102;2024-01-06T02:52:28;3.93;;;2.37;;
6292;SDS011;3179;54.350;10.102;2024-01-06T02:54:55;6.80;;;2.73;;
6292;SDS011;3179;54.350;10.102;2024-01-06T02:57:25;3.67;;;2.43;;
6292;SDS011;3179;54.350;10.102;2024-01-06T02:59:52;4.30;;;2.93;;
6292;SDS011;3179;54.350;10.102;2024-01-06T03:02:18;3.10;;;2.53;;
6292;SDS011;3179;54.350;10.102;2024-01-06T03:04:45;2.17;;;1.97;;
6292;SDS011;3179;54.350;10.102;2024-01-06T03:07:11;3.87;;;2.00;;
6292;SDS011;3179;54.350;10.102;2024-01-06T03:09:38;7.37;;;2.43;;
6292;SDS011;3179;54.350;10.102;2024-01-06T03:12:05;2.57;;;2.20;;
6292;SDS011;3179;54.350;10.102;2024-01-06T03:14:35;3.30;;;2.20;;
6292;SDS011;3179;54.350;10.102;2024-01-06T03:17:02;2.73;;;2.47;;
6292;SDS011;3179;54.350;10.102;2024-01-06T03:19:29;5.40;;;2.30;;
6292;SDS011;3179;54.350;10.102;2024-01-06T03:21:57;10.47;;;2.50;;
6292;SDS011;3179;54.350;10.102;2024-01-06T03:24:24;2.30;;;2.00;;
6292;SDS011;3179;54.350;10.102;2024-01-06T03:26:52;4.40;;;2.37;;
6292;SDS011;3179;54.350;10.102;2024-01-06T03:29:18;5.10;;;2.70;;
6292;SDS011;3179;54.350;10.102;2024-01-06T03:31:47;2.90;;;2.37;;
6292;SDS011;3179;54.350;10.102;2024-01-06T03:34:14;2.40;;;2.20;;
6292;SDS011;3179;54.350;10.102;2024-01-06T03:36:40;3.07;;;2.60;;
6292;SDS011;3179;54.350;10.102;2024-01-06T03:39:07;2.60;;;2.27;;
6292;SDS011;3179;54.350;10.102;2024-01-06T03:41:35;3.30;;;3.00;;
6292;SDS011;3179;54.350;10.102;2024-01-06T03:44:02;2.60;;;2.40;;
6292;SDS011;3179;54.350;10.102;2024-01-06T03:46:30;1.93;;;1.83;;
6292;SDS011;3179;54.350;10.102;2024-01-06T03:48:58;4.60;;;2.50;;
6292;SDS011;3179;54.350;10.102;2024-01-06T03:51:25;4.40;;;2.50;;
6292;SDS011;3179;54.350;10.102;2024-01-06T03:53:51;2.50;;;2.20;;
6292;SDS011;3179;54.350;10.102;2024-01-06T03:56:18;3.40;;;2.43;;
6292;SDS011;3179;54.350;10.102;2024-01-06T03:58:45;5.87;;;2.87;;
6292;SDS011;3179;54.350;10.102;2024-01-06T04:01:13;2.50;;;2.03;;
6292;SDS011;3179;54.350;10.102;2024-01-06T04:03:40;3.67;;;2.30;;
6292;SDS011;3179;54.350;10.102;2024-01-06T04:06:08;3.10;;;2.07;;
6292;SDS011;3179;54.350;10.102;2024-01-06T04:08:36;3.00;;;2.57;;
6292;SDS011;3179;54.350;10.102;2024-01-06T04:11:03;5.77;;;2.40;;
6292;SDS011;3179;54.350;10.102;2024-01-06T04:13:29;2.27;;;2.07;;
6292;SDS011;3179;54.350;10.102;2024-01-06T04:15:56;2.87;;;2.67;;
6292;SDS011;3179;54.350;10.102;2024-01-06T04:18:26;2.50;;;2.20;;
6292;SDS011;3179;54.350;10.102;2024-01-06T04:20:52;5.50;;;2.30;;
6292;SDS011;3179;54.350;10.102;2024-01-06T04:23:21;3.03;;;2.07;;
6292;SDS011;3179;54.350;10.102;2024-01-06T04:25:48;4.20;;;2.30;;
6292;SDS011;3179;54.350;10.102;2024-01-06T04:28:15;5.07;;;2.30;;
6292;SDS011;3179;54.350;10.102;2024-01-06T04:30:42;3.30;;;2.10;;
6292;SDS011;3179;54.350;10.102;2024-01-06T04:33:09;3.37;;;2.10;;
6292;SDS011;3179;54.350;10.102;2024-01-06T04:35:35;2.73;;;2.20;;
6292;SDS011;3179;54.350;10.102;2024-01-06T04:38:02;3.43;;;2.70;;
6292;SDS011;3179;54.350;10.102;2024-01-06T04:40:31;3.10;;;2.20;;
6292;SDS011;3179;54.350;10.102;2024-01-06T04:42:58;3.90;;;2.70;;
6292;SDS011;3179;54.350;10.102;2024-01-06T04:45:24;2.73;;;2.50;;
6292;SDS011;3179;54.350;10.102;2024-01-06T04:47:52;4.80;;;2.70;;
6292;SDS011;3179;54.350;10.102;2024-01-06T04:50:19;3.77;;;2.73;;
6292;SDS011;3179;54.350;10.102;2024-01-06T04:52:46;3.03;;;2.73;;
6292;SDS011;3179;54.350;10.102;2024-01-06T04:55:14;4.70;;;2.47;;
6292;SDS011;3179;54.350;10.102;2024-01-06T04:57:42;3.07;;;2.50;;
6292;SDS011;3179;54.350;10.102;2024-01-06T05:00:09;6.87;;;2.67;;
6292;SDS011;3179;54.350;10.102;2024-01-06T05:02:37;2.60;;;2.00;;
6292;SDS011;3179;54.350;10.102;2024-01-06T05:05:06;2.73;;;2.13;;
6292;SDS011;3179;54.350;10.102;2024-01-06T05:07:33;2.23;;;2.03;;
6292;SDS011;3179;54.350;10.102;2024-01-06T05:10:00;2.17;;;1.97;;
6292;SDS011;3179;54.350;10.102;2024-01-06T05:12:27;2.60;;;2.03;;
6292;SDS011;3179;54.350;10.102;2024-01-06T05:14:55;5.60;;;2.37;;
6292;SDS011;3179;54.350;10.102;2024-01-06T05:17:22;2.67;;;2.03;;
6292;SDS011;3179;54.350;10.102;2024-01-06T05:19:49;4.17;;;1.83;;
6292;SDS011;3179;54.350;10.102;2024-01-06T05:22:17;2.67;;;2.03;;
6292;SDS011;3179;54.350;10.102;2024-01-06T05:24:44;2.07;;;1.83;;
6292;SDS011;3179;54.350;10.102;2024-01-06T05:27:18;3.47;;;2.43;;
6292;SDS011;3179;54.350;10.102;2024-01-06T05:29:44;2.03;;;1.83;;
6292;SDS011;3179;54.350;10.102;2024-01-06T05:32:12;1.93;;;1.80;;
6292;SDS011;3179;54.350;10.102;2024-01-06T05:34:39;3.47;;;2.00;;
6292;SDS011;3179;54.350;10.102;2024-01-06T05:37:05;3.40;;;1.60;;
6292;SDS011;3179;54.350;10.102;2024-01-06T05:39:32;1.37;;;1.27;;
6292;SDS011;3179;54.350;10.102;2024-01-06T05:41:59;2.10;;;1.63;;
6292;SDS011;3179;54.350;10.102;2024-01-06T05:44:26;3.10;;;1.23;;
6292;SDS011;3179;54.350;10.102;2024-01-06T05:46:53;2.77;;;1.53;;
6292;SDS011;3179;54.350;10.102;2024-01-06T05:49:24;2.00;;;1.90;;
6292;SDS011;3179;54.350;10.102;2024-01-06T05:51:52;2.53;;;1.60;;
6292;SDS011;3179;54.350;10.102;2024-01-06T05:54:19;4.17;;;1.40;;
6292;SDS011;3179;54.350;10.102;2024-01-06T05:56:46;3.53;;;1.60;;
6292;SDS011;3179;54.350;10.102;2024-01-06T05:59:13;3.80;;;1.50;;
6292;SDS011;3179;54.350;10.102;2024-01-06T06:01:43;4.93;;;1.33;;
6292;SDS011;3179;54.350;10.102;2024-01-06T06:04:10;6.07;;;1.70;;
6292;SDS011;3179;54.350;10.102;2024-01-06T06:06:39;2.47;;;1.83;;
6292;SDS011;3179;54.350;10.102;2024-01-06T06:09:06;2.93;;;1.70;;
6292;SDS011;3179;54.350;10.102;2024-01-06T06:11:35;2.30;;;1.23;;
6292;SDS011;3179;54.350;10.102;2024-01-06T06:14:01;2.40;;;1.60;;
6292;SDS011;3179;54.350;10.102;2024-01-06T06:16:29;2.43;;;1.10;;
6292;SDS011;3179;54.350;10.102;2024-01-06T06:18:56;1.67;;;1.57;;
6292;SDS011;3179;54.350;10.102;2024-01-06T06:21:23;1.33;;;1.23;;
6292;SDS011;3179;54.350;10.102;2024-01-06T06:23:52;3.67;;;1.30;;
6292;SDS011;3179;54.350;10.102;2024-01-06T06:26:19;4.27;;;1.17;;
6292;SDS011;3179;54.350;10.102;2024-01-06T06:28:45;3.87;;;1.50;;
6292;SDS011;3179;54.350;10.102;2024-01-06T06:31:12;1.30;;;1.00;;
6292;SDS011;3179;54.350;10.102;2024-01-06T06:33:39;3.23;;;1.37;;
6292;SDS011;3179;54.350;10.102;2024-01-06T06:36:07;2.00;;;1.80;;
6292;SDS011;3179;54.350;10.102;2024-01-06T06:38:34;2.40;;;1.40;;
6292;SDS011;3179;54.350;10.102;2024-01-06T06:41:02;1.50;;;1.20;;
6292;SDS011;3179;54.350;10.102;2024-01-06T06:43:29;1.70;;;1.30;;
6292;SDS011;3179;54.350;10.102;2024-01-06T06:45:56;1.70;;;1.20;;
6292;SDS011;3179;54.350;10.102;2024-01-06T06:48:23;3.30;;;1.40;;
6292;SDS011;3179;54.350;10.102;2024-01-06T06:50:50;1.30;;;1.20;;
6292;SDS011;3179;54.350;10.102;2024-01-06T06:53:17;1.10;;;1.00;;
6292;SDS011;3179;54.350;10.102;2024-01-06T06:55:47;2.37;;;1.40;;
6292;SDS011;3179;54.350;10.102;2024-01-06T06:58:15;1.70;;;1.40;;
6292;SDS011;3179;54.350;10.102;2024-01-06T07:00:42;1.77;;;1.10;;
6292;SDS011;3179;54.350;10.102;2024-01-06T07:03:09;1.27;;;0.90;;
6292;SDS011;3179;54.350;10.102;2024-01-06T07:05:36;2.10;;;1.17;;
6292;SDS011;3179;54.350;10.102;2024-01-06T07:08:04;2.77;;;1.43;;
6292;SDS011;3179;54.350;10.102;2024-01-06T07:10:31;2.27;;;1.33;;
6292;SDS011;3179;54.350;10.102;2024-01-06T07:12:58;2.60;;;1.20;;
6292;SDS011;3179;54.350;10.102;2024-01-06T07:15:26;3.97;;;1.70;;
6292;SDS011;3179;54.350;10.102;2024-01-06T07:17:53;6.50;;;1.30;;
6292;SDS011;3179;54.350;10.102;2024-01-06T07:20:20;1.70;;;1.13;;
6292;SDS011;3179;54.350;10.102;2024-01-06T07:22:47;3.40;;;1.40;;
6292;SDS011;3179;54.350;10.102;2024-01-06T07:25:14;1.67;;;0.90;;
6292;SDS011;3179;54.350;10.102;2024-01-06T07:27:41;1.77;;;1.30;;
6292;SDS011;3179;54.350;10.102;2024-01-06T07:30:08;2.30;;;1.00;;
6292;SDS011;3179;54.350;10.102;2024-01-06T07:32:37;3.10;;;1.50;;
6292;SDS011;3179;54.350;10.102;2024-01-06T07:35:04;2.47;;;1.20;;
6292;SDS011;3179;54.350;10.102;2024-01-06T07:37:31;4.03;;;1.20;;
6292;SDS011;3179;54.350;10.102;2024-01-06T07:39:58;2.93;;;1.20;;
6292;SDS011;3179;54.350;10.102;2024-01-06T07:42:25;3.27;;;1.30;;
6292;SDS011;3179;54.350;10.102;2024-01-06T07:44:52;1.97;;;1.10;;
6292;SDS011;3179;54.350;10.102;2024-01-06T07:47:19;1.13;;;1.00;;
6292;SDS011;3179;54.350;10.102;2024-01-06T07:49:47;0.80;;;0.80;;
6292;SDS011;3179;54.350;10.102;2024-01-06T07:52:14;1.70;;;1.30;;
6292;SDS011;3179;54.350;10.102;2024-01-06T07:54:41;3.53;;;1.50;;
6292;SDS011;3179;54.350;10.102;2024-01-06T07:57:08;2.40;;;1.30;;
6292;SDS011;3179;54.350;10.102;2024-01-06T07:59:36;2.97;;;1.07;;
6292;SDS011;3179;54.350;10.102;2024-01-06T08:02:03;2.50;;;1.10;;
6292;SDS011;3179;54.350;10.102;2024-01-06T08:04:30;1.43;;;1.00;;
6292;SDS011;3179;54.350;10.102;2024-01-06T08:06:58;1.10;;;0.90;;
6292;SDS011;3179;54.350;10.102;2024-01-06T08:09:25;5.17;;;0.80;;
6292;SDS011;3179;54.350;10.102;2024-01-06T08:11:52;1.70;;;1.17;;
6292;SDS011;3179;54.350;10.102;2024-01-06T08:14:19;1.20;;;0.80;;
6292;SDS011;3179;54.350;10.102;2024-01-06T08:16:45;1.33;;;0.80;;
6292;SDS011;3179;54.350;10.102;2024-01-06T08:19:13;1.17;;;0.63;;
6292;SDS011;3179;54.350;10.102;2024-01-06T08:21:39;4.50;;;1.00;;
6292;SDS011;3179;54.350;10.102;2024-01-06T08:24:08;0.90;;;0.80;;
6292;SDS011;3179;54.350;10.102;2024-01-06T08:26:35;0.93;;;0.60;;
6292;SDS011;3179;54.350;10.102;2024-01-06T08:29:01;2.00;;;0.83;;
6292;SDS011;3179;54.350;10.102;2024-01-06T08:31:28;1.53;;;0.90;;
6292;SDS011;3179;54.350;10.102;2024-01-06T08:33:55;1.97;;;0.80;;
6292;SDS011;3179;54.350;10.102;2024-01-06T08:36:22;1.83;;;1.10;;
6292;SDS011;3179;54.350;10.102;2024-01-06T08:38:49;2.80;;;1.10;;
6292;SDS011;3179;54.350;10.102;2024-01-06T08:41:17;1.33;;;1.00;;
6292;SDS011;3179;54.350;10.102;2024-01-06T08:43:44;2.03;;;1.20;;
6292;SDS011;3179;54.350;10.102;2024-01-06T08:46:11;1.90;;;0.90;;
6292;SDS011;3179;54.350;10.102;2024-01-06T08:48:37;3.33;;;1.20;;
6292;SDS011;3179;54.350;10.102;2024-01-06T08:51:04;6.93;;;1.27;;
6292;SDS011;3179;54.350;10.102;2024-01-06T08:53:32;2.57;;;1.53;;
6292;SDS011;3179;54.350;10.102;2024-01-06T08:55:58;1.87;;;1.20;;
6292;SDS011;3179;54.350;10.102;2024-01-06T08:58:27;1.53;;;1.00;;
6292;SDS011;3179;54.350;10.102;2024-01-06T09:00:53;3.10;;;1.00;;
6292;SDS011;3179;54.350;10.102;2024-01-06T09:03:20;3.17;;;1.10;;
6292;SDS011;3179;54.350;10.102;2024-01-06T09:05:51;4.03;;;1.00;;
6292;SDS011;3179;54.350;10.102;2024-01-06T09:08:18;2.03;;;0.90;;
6292;SDS011;3179;54.350;10.102;2024-01-06T09:10:45;0.70;;;0.70;;
6292;SDS011;3179;54.350;10.102;2024-01-06T09:13:12;1.10;;;0.93;;
6292;SDS011;3179;54.350;10.102;2024-01-06T09:15:41;1.50;;;1.00;;
6292;SDS011;3179;54.350;10.102;2024-01-06T09:18:08;3.30;;;0.93;;
6292;SDS011;3179;54.350;10.102;2024-01-06T09:20:35;0.87;;;0.87;;
6292;SDS011;3179;54.350;10.102;2024-01-06T09:23:02;1.60;;;1.00;;
6292;SDS011;3179;54.350;10.102;2024-01-06T09:25:29;1.43;;;1.00;;
6292;SDS011;3179;54.350;10.102;2024-01-06T09:27:56;1.20;;;0.90;;
6292;SDS011;3179;54.350;10.102;2024-01-06T09:30:25;2.70;;;0.70;;
6292;SDS011;3179;54.350;10.102;2024-01-06T09:32:53;3.33;;;1.23;;
6292;SDS011;3179;54.350;10.102;2024-01-06T09:35:20;1.17;;;1.03;;
6292;SDS011;3179;54.350;10.102;2024-01-06T09:37:48;1.67;;;0.90;;
6292;SDS011;3179;54.350;10.102;2024-01-06T09:40:15;1.37;;;0.90;;
6292;SDS011;3179;54.350;10.102;2024-01-06T09:42:48;1.50;;;1.20;;
6292;SDS011;3179;54.350;10.102;2024-01-06T09:45:15;5.13;;;1.20;;
6292;SDS011;3179;54.350;10.102;2024-01-06T09:47:42;2.63;;;1.33;;
6292;SDS011;3179;54.350;10.102;2024-01-06T09:50:15;2.40;;;1.10;;
6292;SDS011;3179;54.350;10.102;2024-01-06T09:52:45;4.33;;;1.00;;
6292;SDS011;3179;54.350;10.102;2024-01-06T09:55:18;1.20;;;1.00;;
6292;SDS011;3179;54.350;10.102;2024-01-06T09:57:51;2.23;;;1.13;;
6292;SDS011;3179;54.350;10.102;2024-01-06T10:00:19;2.20;;;1.30;;
6292;SDS011;3179;54.350;10.102;2024-01-06T10:02:46;1.53;;;1.00;;
6292;SDS011;3179;54.350;10.102;2024-01-06T10:05:14;3.03;;;0.90;;
6292;SDS011;3179;54.350;10.102;2024-01-06T10:07:43;2.40;;;1.50;;
6292;SDS011;3179;54.350;10.102;2024-01-06T10:10:11;1.63;;;1.13;;
6292;SDS011;3179;54.350;10.102;2024-01-06T10:12:38;3.30;;;1.63;;
6292;SDS011;3179;54.350;10.102;2024-01-06T10:15:06;6.47;;;1.67;;
6292;SDS011;3179;54.350;10.102;2024-01-06T10:20:05;1.70;;;1.00;;
6292;SDS011;3179;54.350;10.102;2024-01-06T10:22:36;2.50;;;1.30;;
6292;SDS011;3179;54.350;10.102;2024-01-06T10:25:04;2.70;;;1.13;;
6292;SDS011;3179;54.350;10.102;2024-01-06T10:27:33;2.57;;;1.50;;
6292;SDS011;3179;54.350;10.102;2024-01-06T10:30:01;3.93;;;1.30;;
6292;SDS011;3179;54.350;10.102;2024-01-06T10:32:30;1.80;;;0.90;;
6292;SDS011;3179;54.350;10.102;2024-01-06T10:34:57;5.80;;;1.20;;
6292;SDS011;3179;54.350;10.102;2024-01-06T10:37:26;1.93;;;1.20;;
6292;SDS011;3179;54.350;10.102;2024-01-06T10:40:06;1.20;;;1.10;;
6292;SDS011;3179;54.350;10.102;2024-01-06T10:42:34;1.57;;;0.97;;
6292;SDS011;3179;54.350;10.102;2024-01-06T10:45:04;4.47;;;1.47;;
6292;SDS011;3179;54.350;10.102;2024-01-06T10:47:34;2.30;;;1.37;;
6292;SDS011;3179;54.350;10.102;2024-01-06T10:50:02;3.43;;;1.33;;
6292;SDS011;3179;54.350;10.102;2024-01-06T10:52:29;2.70;;;1.30;;
6292;SDS011;3179;54.350;10.102;2024-01-06T10:54:57;2.40;;;1.30;;
6292;SDS011;3179;54.350;10.102;2024-01-06T10:57:25;6.53;;;1.50;;
6292;SDS011;3179;54.350;10.102;2024-01-06T10:59:57;1.80;;;1.27;;
6292;SDS011;3179;54.350;10.102;2024-01-06T11:02:24;2.23;;;1.30;;
6292;SDS011;3179;54.350;10.102;2024-01-06T11:04:55;4.20;;;1.70;;
6292;SDS011;3179;54.350;10.102;2024-01-06T11:07:23;1.60;;;1.33;;
6292;SDS011;3179;54.350;10.102;2024-01-06T11:09:52;2.00;;;1.07;;
6292;SDS011;3179;54.350;10.102;2024-01-06T11:12:23;2.63;;;1.13;;
6292;SDS011;3179;54.350;10.102;2024-01-06T11:14:52;2.77;;;1.50;;
6292;SDS011;3179;54.350;10.102;2024-01-06T11:20:15;2.30;;;1.17;;
6292;SDS011;3179;54.350;10.102;2024-01-06T11:22:42;2.37;;;1.47;;
6292;SDS011;3179;54.350;10.102;2024-01-06T11:25:15;1.17;;;1.07;;
6292;SDS011;3179;54.350;10.102;2024-01-06T11:27:44;1.57;;;1.20;;
6292;SDS011;3179;54.350;10.102;2024-01-06T11:30:22;2.30;;;1.30;;
6292;SDS011;3179;54.350;10.102;2024-01-06T11:32:51;1.03;;;1.03;;
6292;SDS011;3179;54.350;10.102;2024-01-06T11:35:19;4.70;;;1.40;;
6292;SDS011;3179;54.350;10.102;2024-01-06T11:37:52;2.00;;;1.07;;
6292;SDS011;3179;54.350;10.102;2024-01-06T11:40:22;5.60;;;1.37;;
6292;SDS011;3179;54.350;10.102;2024-01-06T11:42:58;3.30;;;1.27;;
6292;SDS011;3179;54.350;10.102;2024-01-06T11:45:28;2.33;;;1.50;;
6292;SDS011;3179;54.350;10.102;2024-01-06T11:47:56;1.20;;;1.10;;
6292;SDS011;3179;54.350;10.102;2024-01-06T11:50:25;4.73;;;1.50;;
6292;SDS011;3179;54.350;10.102;2024-01-06T11:52:52;9.03;;;2.07;;
6292;SDS011;3179;54.350;10.102;2024-01-06T11:55:19;3.00;;;1.67;;
6292;SDS011;3179;54.350;10.102;2024-01-06T11:57:47;1.30;;;1.10;;
6292;SDS011;3179;54.350;10.102;2024-01-06T12:00:15;2.40;;;1.20;;
6292;SDS011;3179;54.350;10.102;2024-01-06T12:02:44;2.10;;;1.20;;
6292;SDS011;3179;54.350;10.102;2024-01-06T12:05:14;3.00;;;1.63;;
6292;SDS011;3179;54.350;10.102;2024-01-06T12:07:43;2.03;;;1.40;;
6292;SDS011;3179;54.350;10.102;2024-01-06T12:10:19;3.00;;;1.47;;
6292;SDS011;3179;54.350;10.102;2024-01-06T12:12:54;1.80;;;1.30;;
6292;SDS011;3179;54.350;10.102;2024-01-06T12:15:21;1.70;;;1.37;;
6292;SDS011;3179;54.350;10.102;2024-01-06T12:17:49;2.70;;;1.43;;
6292;SDS011;3179;54.350;10.102;2024-01-06T12:20:17;1.90;;;1.50;;
6292;SDS011;3179;54.350;10.102;2024-01-06T12:22:44;3.50;;;1.40;;
6292;SDS011;3179;54.350;10.102;2024-01-06T12:25:11;2.03;;;1.57;;
6292;SDS011;3179;54.350;10.102;2024-01-06T12:27:41;7.00;;;1.30;;
6292;SDS011;3179;54.350;10.102;2024-01-06T12:30:12;1.63;;;1.17;;
6292;SDS011;3179;54.350;10.102;2024-01-06T12:32:43;1.50;;;1.20;;
6292;SDS011;3179;54.350;10.102;2024-01-06T12:35:12;3.90;;;1.40;;
6292;SDS011;3179;54.350;10.102;2024-01-06T12:37:41;1.93;;;1.30;;
6292;SDS011;3179;54.350;10.102;2024-01-06T12:40:09;2.40;;;1.10;;
6292;SDS011;3179;54.350;10.102;2024-01-06T12:42:36;2.93;;;1.40;;
6292;SDS011;3179;54.350;10.102;2024-01-06T12:45:04;5.03;;;1.83;;
6292;SDS011;3179;54.350;10.102;2024-01-06T12:47:32;2.13;;;1.50;;
6292;SDS011;3179;54.350;10.102;2024-01-06T12:49:59;3.43;;;1.27;;
6292;SDS011;3179;54.350;10.102;2024-01-06T12:52:28;2.37;;;1.30;;
6292;SDS011;3179;54.350;10.102;2024-01-06T12:54:54;2.70;;;1.73;;
6292;SDS011;3179;54.350;10.102;2024-01-06T12:57:21;2.00;;;1.23;;
6292;SDS011;3179;54.350;10.102;2024-01-06T12:59:48;1.93;;;1.50;;
6292;SDS011;3179;54.350;10.102;2024-01-06T13:02:15;1.43;;;1.10;;
6292;SDS011;3179;54.350;10.102;2024-01-06T13:04:42;3.67;;;1.70;;
6292;SDS011;3179;54.350;10.102;2024-01-06T13:07:09;2.93;;;1.27;;
6292;SDS011;3179;54.350;10.102;2024-01-06T13:09:37;2.10;;;1.00;;
6292;SDS011;3179;54.350;10.102;2024-01-06T13:12:06;3.23;;;1.50;;
6292;SDS011;3179;54.350;10.102;2024-01-06T13:14:33;3.33;;;1.67;;
6292;SDS011;3179;54.350;10.102;2024-01-06T13:17:00;6.30;;;2.00;;
6292;SDS011;3179;54.350;10.102;2024-01-06T13:19:27;2.33;;;1.30;;
6292;SDS011;3179;54.350;10.102;2024-01-06T13:21:54;4.00;;;2.10;;
6292;SDS011;3179;54.350;10.102;2024-01-06T13:24:21;5.50;;;1.67;;
6292;SDS011;3179;54.350;10.102;2024-01-06T13:26:50;1.57;;;1.13;;
6292;SDS011;3179;54.350;10.102;2024-01-06T13:29:18;6.50;;;1.40;;
6292;SDS011;3179;54.350;10.102;2024-01-06T13:31:45;8.43;;;1.70;;
6292;SDS011;3179;54.350;10.102;2024-01-06T13:34:12;1.73;;;1.30;;
6292;SDS011;3179;54.350;10.102;2024-01-06T13:36:39;2.10;;;1.30;;
6292;SDS011;3179;54.350;10.102;2024-01-06T13:39:06;3.70;;;1.53;;
6292;SDS011;3179;54.350;10.102;2024-01-06T13:41:33;1.97;;;1.40;;
6292;SDS011;3179;54.350;10.102;2024-01-06T13:44:02;3.27;;;1.30;;
6292;SDS011;3179;54.350;10.102;2024-01-06T13:46:29;1.93;;;1.57;;
6292;SDS011;3179;54.350;10.102;2024-01-06T13:48:56;3.47;;;1.60;;
6292;SDS011;3179;54.350;10.102;2024-01-06T13:51:23;2.03;;;1.50;;
6292;SDS011;3179;54.350;10.102;2024-01-06T13:53:50;2.50;;;1.30;;
6292;SDS011;3179;54.350;10.102;2024-01-06T13:56:17;2.33;;;1.47;;
6292;SDS011;3179;54.350;10.102;2024-01-06T13:58:44;3.77;;;1.57;;
6292;SDS011;3179;54.350;10.102;2024-01-06T14:01:13;1.87;;;1.43;;
6292;SDS011;3179;54.350;10.102;2024-01-06T14:03:40;2.20;;;1.00;;
6292;SDS011;3179;54.350;10.102;2024-01-06T14:06:07;2.50;;;1.43;;
6292;SDS011;3179;54.350;10.102;2024-01-06T14:08:34;5.97;;;2.07;;
6292;SDS011;3179;54.350;10.102;2024-01-06T14:11:01;4.53;;;1.50;;
6292;SDS011;3179;54.350;10.102;2024-01-06T14:13:28;2.13;;;1.40;;
6292;SDS011;3179;54.350;10.102;2024-01-06T14:15:55;4.67;;;1.33;;
6292;SDS011;3179;54.350;10.102;2024-01-06T14:18:23;11.47;;;1.27;;
6292;SDS011;3179;54.350;10.102;2024-01-06T14:20:52;3.10;;;1.60;;
6292;SDS011;3179;54.350;10.102;2024-01-06T14:23:20;2.20;;;1.33;;
6292;SDS011;3179;54.350;10.102;2024-01-06T14:25:49;2.03;;;1.27;;
6292;SDS011;3179;54.350;10.102;2024-01-06T14:28:15;4.27;;;1.90;;
6292;SDS011;3179;54.350;10.102;2024-01-06T14:30:42;4.67;;;2.00;;
6292;SDS011;3179;54.350;10.102;2024-01-06T14:33:09;2.70;;;1.63;;
6292;SDS011;3179;54.350;10.102;2024-01-06T14:35:37;5.77;;;1.80;;
6292;SDS011;3179;54.350;10.102;2024-01-06T14:38:04;2.80;;;1.90;;
6292;SDS011;3179;54.350;10.102;2024-01-06T14:40:31;5.43;;;1.90;;
6292;SDS011;3179;54.350;10.102;2024-01-06T14:42:59;2.93;;;1.83;;
6292;SDS011;3179;54.350;10.102;2024-01-06T14:45:27;3.70;;;2.17;;
6292;SDS011;3179;54.350;10.102;2024-01-06T14:47:54;2.00;;;1.20;;
6292;SDS011;3179;54.350;10.102;2024-01-06T14:50:21;1.97;;;1.67;;
6292;SDS011;3179;54.350;10.102;2024-01-06T14:52:49;1.83;;;1.37;;
6292;SDS011;3179;54.350;10.102;2024-01-06T14:55:16;1.73;;;1.30;;
6292;SDS011;3179;54.350;10.102;2024-01-06T14:57:44;3.60;;;1.40;;
6292;SDS011;3179;54.350;10.102;2024-01-06T15:00:11;2.57;;;1.10;;
6292;SDS011;3179;54.350;10.102;2024-01-06T15:02:38;1.20;;;1.10;;
6292;SDS011;3179;54.350;10.102;2024-01-06T15:05:06;2.07;;;1.00;;
6292;SDS011;3179;54.350;10.102;2024-01-06T15:07:33;2.70;;;0.90;;